sensor_id;sensor_type;location;lat;lon;timestamp;temperature;humidity
26964;DHT22;14521;48.148;-1.656;2023-04-24T00:00:03;19.80;91.80
26964;DHT22;14521;48.148;-1.656;2023-04-24T00:03:28;19.80;91.90
26964;DHT22;14521;48.148;-1.656;2023-04-24T00:06:51;19.90;92.10
26964;DHT22;14521;48.148;-1.656;2023-04-24T00:10:16;19.80;92.00
26964;DHT22;14521;48.148;-1.656;2023-04-24T00:13:38;19.80;91.90
26964;DHT22;14521;48.148;-1.656;2023-04-24T00:17:01;19.90;91.80
26964;DHT22;14521;48.148;-1.656;2023-04-24T00:20:27;19.80;91.80
26964;DHT22;14521;48.148;-1.656;2023-04-24T00:23:54;19.90;91.60
26964;DHT22;14521;48.148;-1.656;2023-04-24T00:27:16;19.80;91.50
26964;DHT22;14521;48.148;-1.656;2023-04-24T00:30:39;19.80;91.30
26964;DHT22;14521;48.148;-1.656;2023-04-24T00:34:03;19.80;91.30
26964;DHT22;14521;48.148;-1.656;2023-04-24T00:37:25;19.80;91.00
26964;DHT22;14521;48.148;-1.656;2023-04-24T00:40:48;19.80;91.10
26964;DHT22;14521;48.148;-1.656;2023-04-24T00:44:12;19.80;91.00
26964;DHT22;14521;48.148;-1.656;2023-04-24T00:47:34;19.80;90.80
26964;DHT22;14521;48.148;-1.656;2023-04-24T00:50:56;19.80;90.90
26964;DHT22;14521;48.148;-1.656;2023-04-24T00:54:20;19.80;90.60
26964;DHT22;14521;48.148;-1.656;2023-04-24T00:57:43;19.80;90.60
26964;DHT22;14521;48.148;-1.656;2023-04-24T01:01:06;19.80;90.70
26964;DHT22;14521;48.148;-1.656;2023-04-24T01:04:29;19.80;90.70
26964;DHT22;14521;48.148;-1.656;2023-04-24T01:07:52;19.80;90.40
26964;DHT22;14521;48.148;-1.656;2023-04-24T01:11:14;19.80;90.50
26964;DHT22;14521;48.148;-1.656;2023-04-24T01:14:37;19.80;90.30
26964;DHT22;14521;48.148;-1.656;2023-04-24T01:18:00;19.80;90.20
26964;DHT22;14521;48.148;-1.656;2023-04-24T01:21:23;19.80;90.10
26964;DHT22;14521;48.148;-1.656;2023-04-24T01:24:49;19.80;90.10
26964;DHT22;14521;48.148;-1.656;2023-04-24T01:28:12;19.80;90.00
26964;DHT22;14521;48.148;-1.656;2023-04-24T01:31:36;19.80;89.60
26964;DHT22;14521;48.148;-1.656;2023-04-24T01:34:59;19.80;89.60
26964;DHT22;14521;48.148;-1.656;2023-04-24T01:38:21;19.80;89.60
26964;DHT22;14521;48.148;-1.656;2023-04-24T01:41:44;19.80;89.60
26964;DHT22;14521;48.148;-1.656;2023-04-24T01:45:06;19.80;89.30
26964;DHT22;14521;48.148;-1.656;2023-04-24T01:48:30;19.80;89.30
26964;DHT22;14521;48.148;-1.656;2023-04-24T01:51:53;19.80;89.30
26964;DHT22;14521;48.148;-1.656;2023-04-24T01:55:15;19.70;88.90
26964;DHT22;14521;48.148;-1.656;2023-04-24T01:58:39;19.80;89.20
26964;DHT22;14521;48.148;-1.656;2023-04-24T02:02:02;19.80;88.70
26964;DHT22;14521;48.148;-1.656;2023-04-24T02:05:25;19.80;88.70
26964;DHT22;14521;48.148;-1.656;2023-04-24T02:08:47;19.70;88.70
26964;DHT22;14521;48.148;-1.656;2023-04-24T02:12:09;19.80;88.30
26964;DHT22;14521;48.148;-1.656;2023-04-24T02:15:32;19.70;88.40
26964;DHT22;14521;48.148;-1.656;2023-04-24T02:18:54;19.80;88.30
26964;DHT22;14521;48.148;-1.656;2023-04-24T02:22:18;19.70;88.20
26964;DHT22;14521;48.148;-1.656;2023-04-24T02:25:41;19.70;88.20
26964;DHT22;14521;48.148;-1.656;2023-04-24T02:29:03;19.80;87.60
26964;DHT22;14521;48.148;-1.656;2023-04-24T02:32:29;19.80;87.70
26964;DHT22;14521;48.148;-1.656;2023-04-24T02:35:52;19.70;87.50
26964;DHT22;14521;48.148;-1.656;2023-04-24T02:39:15;19.70;87.60
26964;DHT22;14521;48.148;-1.656;2023-04-24T02:42:40;19.70;87.70
26964;DHT22;14521;48.148;-1.656;2023-04-24T02:46:03;19.80;87.30
26964;DHT22;14521;48.148;-1.656;2023-04-24T02:49:25;19.70;87.10
26964;DHT22;14521;48.148;-1.656;2023-04-24T02:52:48;19.70;87.20
26964;DHT22;14521;48.148;-1.656;2023-04-24T02:56:10;19.70;87.00
26964;DHT22;14521;48.148;-1.656;2023-04-24T02:59:34;19.70;86.90
26964;DHT22;14521;48.148;-1.656;2023-04-24T03:02:56;19.70;86.80
26964;DHT22;14521;48.148;-1.656;2023-04-24T03:06:19;19.70;86.60
26964;DHT22;14521;48.148;-1.656;2023-04-24T03:09:43;19.80;86.50
26964;DHT22;14521;48.148;-1.656;2023-04-24T03:13:05;19.70;86.40
26964;DHT22;14521;48.148;-1.656;2023-04-24T03:16:29;19.70;86.20
26964;DHT22;14521;48.148;-1.656;2023-04-24T03:19:51;19.70;86.20
26964;DHT22;14521;48.148;-1.656;2023-04-24T03:23:14;19.70;86.00
26964;DHT22;14521;48.148;-1.656;2023-04-24T03:26:36;19.70;85.80
26964;DHT22;14521;48.148;-1.656;2023-04-24T03:30:13;19.70;85.80
26964;DHT22;14521;48.148;-1.656;2023-04-24T03:33:41;19.70;85.80
26964;DHT22;14521;48.148;-1.656;2023-04-24T03:37:03;19.70;85.70
26964;DHT22;14521;48.148;-1.656;2023-04-24T03:40:27;19.70;85.50
26964;DHT22;14521;48.148;-1.656;2023-04-24T03:43:52;19.70;85.50
26964;DHT22;14521;48.148;-1.656;2023-04-24T03:47:15;19.70;85.30
26964;DHT22;14521;48.148;-1.656;2023-04-24T03:50:38;19.70;85.20
26964;DHT22;14521;48.148;-1.656;2023-04-24T03:54:02;19.70;85.10
26964;DHT22;14521;48.148;-1.656;2023-04-24T03:57:27;19.70;85.00
26964;DHT22;14521;48.148;-1.656;2023-04-24T04:01:01;19.70;84.80
26964;DHT22;14521;48.148;-1.656;2023-04-24T04:04:46;19.70;84.80
26964;DHT22;14521;48.148;-1.656;2023-04-24T04:08:09;19.70;84.70
26964;DHT22;14521;48.148;-1.656;2023-04-24T04:11:32;19.70;84.70
26964;DHT22;14521;48.148;-1.656;2023-04-24T04:14:54;19.70;84.50
26964;DHT22;14521;48.148;-1.656;2023-04-24T04:18:17;19.70;84.40
26964;DHT22;14521;48.148;-1.656;2023-04-24T04:21:40;19.70;84.30
26964;DHT22;14521;48.148;-1.656;2023-04-24T04:25:25;19.60;84.30
26964;DHT22;14521;48.148;-1.656;2023-04-24T04:28:48;19.60;84.10
26964;DHT22;14521;48.148;-1.656;2023-04-24T04:32:11;19.60;84.10
26964;DHT22;14521;48.148;-1.656;2023-04-24T04:35:34;19.60;84.10
26964;DHT22;14521;48.148;-1.656;2023-04-24T04:38:56;19.60;84.00
26964;DHT22;14521;48.148;-1.656;2023-04-24T04:42:36;19.60;84.00
26964;DHT22;14521;48.148;-1.656;2023-04-24T04:46:02;19.60;83.80
26964;DHT22;14521;48.148;-1.656;2023-04-24T04:49:25;19.60;83.80
26964;DHT22;14521;48.148;-1.656;2023-04-24T04:52:51;19.60;83.80
26964;DHT22;14521;48.148;-1.656;2023-04-24T04:56:23;19.60;83.80
26964;DHT22;14521;48.148;-1.656;2023-04-24T04:59:45;19.60;83.60
26964;DHT22;14521;48.148;-1.656;2023-04-24T05:03:16;19.60;83.60
26964;DHT22;14521;48.148;-1.656;2023-04-24T05:06:49;19.60;83.50
26964;DHT22;14521;48.148;-1.656;2023-04-24T05:10:13;19.60;83.50
26964;DHT22;14521;48.148;-1.656;2023-04-24T05:13:35;19.60;83.50
26964;DHT22;14521;48.148;-1.656;2023-04-24T05:17:21;19.60;83.40
26964;DHT22;14521;48.148;-1.656;2023-04-24T05:20:44;19.60;83.30
26964;DHT22;14521;48.148;-1.656;2023-04-24T05:24:07;19.60;83.30
26964;DHT22;14521;48.148;-1.656;2023-04-24T05:27:56;19.50;83.30
26964;DHT22;14521;48.148;-1.656;2023-04-24T05:31:18;19.50;83.30
26964;DHT22;14521;48.148;-1.656;2023-04-24T05:34:41;19.60;83.30
26964;DHT22;14521;48.148;-1.656;2023-04-24T05:38:03;19.60;83.20
26964;DHT22;14521;48.148;-1.656;2023-04-24T05:41:26;19.60;83.50
26964;DHT22;14521;48.148;-1.656;2023-04-24T05:44:48;19.60;83.20
26964;DHT22;14521;48.148;-1.656;2023-04-24T05:48:14;19.60;83.80
26964;DHT22;14521;48.148;-1.656;2023-04-24T05:51:37;19.60;84.30
26964;DHT22;14521;48.148;-1.656;2023-04-24T05:55:01;19.60;84.60
26964;DHT22;14521;48.148;-1.656;2023-04-24T05:58:27;19.70;84.80
26964;DHT22;14521;48.148;-1.656;2023-04-24T06:01:50;19.80;84.40
26964;DHT22;14521;48.148;-1.656;2023-04-24T06:05:16;19.80;85.00
26964;DHT22;14521;48.148;-1.656;2023-04-24T06:08:39;19.80;84.70
26964;DHT22;14521;48.148;-1.656;2023-04-24T06:12:02;19.80;84.70
26964;DHT22;14521;48.148;-1.656;2023-04-24T06:15:38;19.80;84.60
26964;DHT22;14521;48.148;-1.656;2023-04-24T06:19:04;19.80;85.10
26964;DHT22;14521;48.148;-1.656;2023-04-24T06:22:26;19.90;85.20
26964;DHT22;14521;48.148;-1.656;2023-04-24T06:25:49;20.00;85.50
26964;DHT22;14521;48.148;-1.656;2023-04-24T06:29:11;20.10;84.80
26964;DHT22;14521;48.148;-1.656;2023-04-24T06:32:34;20.20;84.90
26964;DHT22;14521;48.148;-1.656;2023-04-24T06:35:56;20.30;83.90
26964;DHT22;14521;48.148;-1.656;2023-04-24T06:39:18;20.20;84.30
26964;DHT22;14521;48.148;-1.656;2023-04-24T06:42:41;19.30;75.60
26964;DHT22;14521;48.148;-1.656;2023-04-24T06:46:04;18.70;79.80
26964;DHT22;14521;48.148;-1.656;2023-04-24T06:49:26;19.20;83.50
26964;DHT22;14521;48.148;-1.656;2023-04-24T06:52:49;19.50;82.60
26964;DHT22;14521;48.148;-1.656;2023-04-24T06:56:11;19.80;82.60
26964;DHT22;14521;48.148;-1.656;2023-04-24T06:59:33;20.00;84.90
26964;DHT22;14521;48.148;-1.656;2023-04-24T07:02:56;20.10;86.30
26964;DHT22;14521;48.148;-1.656;2023-04-24T07:06:19;20.10;81.60
26964;DHT22;14521;48.148;-1.656;2023-04-24T07:09:44;20.10;80.80
26964;DHT22;14521;48.148;-1.656;2023-04-24T07:13:07;20.20;80.70
26964;DHT22;14521;48.148;-1.656;2023-04-24T07:16:30;20.30;80.70
26964;DHT22;14521;48.148;-1.656;2023-04-24T07:19:52;20.30;80.30
26964;DHT22;14521;48.148;-1.656;2023-04-24T07:23:15;20.50;80.80
26964;DHT22;14521;48.148;-1.656;2023-04-24T07:26:38;20.60;80.50
26964;DHT22;14521;48.148;-1.656;2023-04-24T07:30:01;20.60;81.10
26964;DHT22;14521;48.148;-1.656;2023-04-24T07:33:24;20.60;83.60
26964;DHT22;14521;48.148;-1.656;2023-04-24T07:36:46;20.40;83.80
26964;DHT22;14521;48.148;-1.656;2023-04-24T07:40:09;20.40;83.50
26964;DHT22;14521;48.148;-1.656;2023-04-24T07:43:32;20.40;83.80
26964;DHT22;14521;48.148;-1.656;2023-04-24T07:46:54;20.40;83.80
26964;DHT22;14521;48.148;-1.656;2023-04-24T07:50:16;20.40;83.50
26964;DHT22;14521;48.148;-1.656;2023-04-24T07:53:39;20.40;83.30
26964;DHT22;14521;48.148;-1.656;2023-04-24T07:57:01;20.30;83.30
26964;DHT22;14521;48.148;-1.656;2023-04-24T08:00:23;20.40;83.40
26964;DHT22;14521;48.148;-1.656;2023-04-24T08:03:46;20.50;83.30
26964;DHT22;14521;48.148;-1.656;2023-04-24T08:07:09;20.50;83.30
26964;DHT22;14521;48.148;-1.656;2023-04-24T08:10:31;20.60;84.10
26964;DHT22;14521;48.148;-1.656;2023-04-24T08:13:53;20.50;83.60
26964;DHT22;14521;48.148;-1.656;2023-04-24T08:17:17;20.80;83.30
26964;DHT22;14521;48.148;-1.656;2023-04-24T08:20:39;20.90;83.30
26964;DHT22;14521;48.148;-1.656;2023-04-24T08:24:02;20.90;83.10
26964;DHT22;14521;48.148;-1.656;2023-04-24T08:27:27;21.00;82.80
26964;DHT22;14521;48.148;-1.656;2023-04-24T08:30:49;21.00;82.70
26964;DHT22;14521;48.148;-1.656;2023-04-24T08:34:16;21.00;82.80
26964;DHT22;14521;48.148;-1.656;2023-04-24T08:37:39;20.90;82.70
26964;DHT22;14521;48.148;-1.656;2023-04-24T08:41:01;20.80;82.90
26964;DHT22;14521;48.148;-1.656;2023-04-24T08:44:23;20.80;84.20
26964;DHT22;14521;48.148;-1.656;2023-04-24T08:47:46;20.80;84.00
26964;DHT22;14521;48.148;-1.656;2023-04-24T08:51:09;20.80;84.20
26964;DHT22;14521;48.148;-1.656;2023-04-24T08:54:35;20.80;83.90
26964;DHT22;14521;48.148;-1.656;2023-04-24T08:57:57;20.70;83.90
26964;DHT22;14521;48.148;-1.656;2023-04-24T09:01:21;20.70;83.70
26964;DHT22;14521;48.148;-1.656;2023-04-24T09:04:45;20.60;83.60
26964;DHT22;14521;48.148;-1.656;2023-04-24T09:08:09;20.60;83.70
26964;DHT22;14521;48.148;-1.656;2023-04-24T09:11:33;20.60;83.50
26964;DHT22;14521;48.148;-1.656;2023-04-24T09:14:57;20.60;83.70
26964;DHT22;14521;48.148;-1.656;2023-04-24T09:18:20;20.60;84.20
26964;DHT22;14521;48.148;-1.656;2023-04-24T09:21:45;20.70;83.50
26964;DHT22;14521;48.148;-1.656;2023-04-24T09:25:08;20.70;83.20
26964;DHT22;14521;48.148;-1.656;2023-04-24T09:28:39;20.80;83.30
26964;DHT22;14521;48.148;-1.656;2023-04-24T09:32:18;20.80;83.00
26964;DHT22;14521;48.148;-1.656;2023-04-24T09:35:42;20.90;82.90
26964;DHT22;14521;48.148;-1.656;2023-04-24T09:39:15;20.90;82.10
26964;DHT22;14521;48.148;-1.656;2023-04-24T09:42:38;20.90;81.70
26964;DHT22;14521;48.148;-1.656;2023-04-24T09:46:07;20.90;81.90
26964;DHT22;14521;48.148;-1.656;2023-04-24T09:49:31;20.90;81.70
26964;DHT22;14521;48.148;-1.656;2023-04-24T09:53:02;20.80;82.20
26964;DHT22;14521;48.148;-1.656;2023-04-24T09:56:25;20.80;82.00
26964;DHT22;14521;48.148;-1.656;2023-04-24T09:59:48;20.80;82.70
26964;DHT22;14521;48.148;-1.656;2023-04-24T10:03:15;20.80;82.70
26964;DHT22;14521;48.148;-1.656;2023-04-24T10:06:40;20.80;82.90
26964;DHT22;14521;48.148;-1.656;2023-04-24T10:10:04;20.80;82.60
26964;DHT22;14521;48.148;-1.656;2023-04-24T10:13:28;20.90;83.20
26964;DHT22;14521;48.148;-1.656;2023-04-24T10:16:54;20.90;83.00
26964;DHT22;14521;48.148;-1.656;2023-04-24T10:20:17;20.90;82.70
26964;DHT22;14521;48.148;-1.656;2023-04-24T10:23:39;20.90;83.00
26964;DHT22;14521;48.148;-1.656;2023-04-24T10:27:03;20.90;85.00
26964;DHT22;14521;48.148;-1.656;2023-04-24T10:30:32;20.90;85.30
26964;DHT22;14521;48.148;-1.656;2023-04-24T10:33:58;20.90;85.30
26964;DHT22;14521;48.148;-1.656;2023-04-24T10:37:22;21.00;86.90
26964;DHT22;14521;48.148;-1.656;2023-04-24T10:40:45;21.00;87.40
26964;DHT22;14521;48.148;-1.656;2023-04-24T10:44:12;21.10;88.10
26964;DHT22;14521;48.148;-1.656;2023-04-24T10:47:41;21.10;87.10
26964;DHT22;14521;48.148;-1.656;2023-04-24T10:51:04;21.10;86.90
26964;DHT22;14521;48.148;-1.656;2023-04-24T10:54:41;21.20;86.90
26964;DHT22;14521;48.148;-1.656;2023-04-24T10:58:04;21.20;86.20
26964;DHT22;14521;48.148;-1.656;2023-04-24T11:01:33;21.10;84.60
26964;DHT22;14521;48.148;-1.656;2023-04-24T11:04:55;21.10;84.30
26964;DHT22;14521;48.148;-1.656;2023-04-24T11:08:26;21.10;83.80
26964;DHT22;14521;48.148;-1.656;2023-04-24T11:11:49;21.10;84.30
26964;DHT22;14521;48.148;-1.656;2023-04-24T11:15:11;21.00;84.70
26964;DHT22;14521;48.148;-1.656;2023-04-24T11:18:39;21.00;83.80
26964;DHT22;14521;48.148;-1.656;2023-04-24T11:22:04;21.00;84.50
26964;DHT22;14521;48.148;-1.656;2023-04-24T11:25:30;21.00;82.80
26964;DHT22;14521;48.148;-1.656;2023-04-24T11:28:53;21.00;83.10
26964;DHT22;14521;48.148;-1.656;2023-04-24T11:32:31;20.90;84.10
26964;DHT22;14521;48.148;-1.656;2023-04-24T11:35:56;20.50;84.00
26964;DHT22;14521;48.148;-1.656;2023-04-24T11:39:18;20.30;83.60
26964;DHT22;14521;48.148;-1.656;2023-04-24T11:42:45;20.30;84.60
26964;DHT22;14521;48.148;-1.656;2023-04-24T11:46:08;20.20;84.90
26964;DHT22;14521;48.148;-1.656;2023-04-24T11:49:31;20.20;85.40
26964;DHT22;14521;48.148;-1.656;2023-04-24T11:52:53;20.20;85.60
26964;DHT22;14521;48.148;-1.656;2023-04-24T11:56:19;20.20;86.10
26964;DHT22;14521;48.148;-1.656;2023-04-24T11:59:42;20.40;85.80
26964;DHT22;14521;48.148;-1.656;2023-04-24T12:03:12;20.50;84.70
26964;DHT22;14521;48.148;-1.656;2023-04-24T12:06:34;20.40;74.60
26964;DHT22;14521;48.148;-1.656;2023-04-24T12:09:58;20.40;81.90
26964;DHT22;14521;48.148;-1.656;2023-04-24T12:13:22;20.50;81.60
26964;DHT22;14521;48.148;-1.656;2023-04-24T12:16:48;20.60;82.00
26964;DHT22;14521;48.148;-1.656;2023-04-24T12:20:11;20.60;81.60
26964;DHT22;14521;48.148;-1.656;2023-04-24T12:23:37;20.70;81.90
26964;DHT22;14521;48.148;-1.656;2023-04-24T12:26:59;20.70;81.60
26964;DHT22;14521;48.148;-1.656;2023-04-24T12:30:27;20.70;81.60
26964;DHT22;14521;48.148;-1.656;2023-04-24T12:33:52;20.80;81.40
26964;DHT22;14521;48.148;-1.656;2023-04-24T12:37:14;20.80;81.30
26964;DHT22;14521;48.148;-1.656;2023-04-24T12:40:37;20.80;81.00
26964;DHT22;14521;48.148;-1.656;2023-04-24T12:43:59;20.80;80.50
26964;DHT22;14521;48.148;-1.656;2023-04-24T12:47:22;20.80;80.80
26964;DHT22;14521;48.148;-1.656;2023-04-24T12:50:44;20.80;80.80
26964;DHT22;14521;48.148;-1.656;2023-04-24T12:54:08;20.80;80.30
26964;DHT22;14521;48.148;-1.656;2023-04-24T12:57:30;20.80;80.10
26964;DHT22;14521;48.148;-1.656;2023-04-24T13:00:53;20.90;80.20
26964;DHT22;14521;48.148;-1.656;2023-04-24T13:04:16;20.90;80.00
26964;DHT22;14521;48.148;-1.656;2023-04-24T13:07:39;20.90;79.60
26964;DHT22;14521;48.148;-1.656;2023-04-24T13:11:02;20.90;79.20
26964;DHT22;14521;48.148;-1.656;2023-04-24T13:14:25;20.60;80.20
26964;DHT22;14521;48.148;-1.656;2023-04-24T13:17:47;20.30;81.70
26964;DHT22;14521;48.148;-1.656;2023-04-24T13:21:10;20.20;82.20
26964;DHT22;14521;48.148;-1.656;2023-04-24T13:24:33;20.10;82.10
26964;DHT22;14521;48.148;-1.656;2023-04-24T13:27:55;20.10;82.10
26964;DHT22;14521;48.148;-1.656;2023-04-24T13:31:17;20.20;81.90
26964;DHT22;14521;48.148;-1.656;2023-04-24T13:34:40;20.40;80.70
26964;DHT22;14521;48.148;-1.656;2023-04-24T13:38:02;20.60;80.40
26964;DHT22;14521;48.148;-1.656;2023-04-24T13:41:27;20.70;80.10
26964;DHT22;14521;48.148;-1.656;2023-04-24T13:44:50;20.60;80.40
26964;DHT22;14521;48.148;-1.656;2023-04-24T13:48:13;20.50;80.20
26964;DHT22;14521;48.148;-1.656;2023-04-24T13:51:38;20.60;78.80
26964;DHT22;14521;48.148;-1.656;2023-04-24T13:55:00;20.60;80.60
26964;DHT22;14521;48.148;-1.656;2023-04-24T13:58:22;20.50;80.20
26964;DHT22;14521;48.148;-1.656;2023-04-24T14:01:45;20.50;80.00
26964;DHT22;14521;48.148;-1.656;2023-04-24T14:05:07;20.50;79.80
26964;DHT22;14521;48.148;-1.656;2023-04-24T14:08:30;20.50;79.80
26964;DHT22;14521;48.148;-1.656;2023-04-24T14:11:52;20.50;79.70
26964;DHT22;14521;48.148;-1.656;2023-04-24T14:15:14;20.50;79.70
26964;DHT22;14521;48.148;-1.656;2023-04-24T14:18:37;20.40;79.70
26964;DHT22;14521;48.148;-1.656;2023-04-24T14:22:00;20.40;79.70
26964;DHT22;14521;48.148;-1.656;2023-04-24T14:25:22;20.40;79.60
26964;DHT22;14521;48.148;-1.656;2023-04-24T14:28:44;20.40;79.80
26964;DHT22;14521;48.148;-1.656;2023-04-24T14:32:07;20.40;80.00
26964;DHT22;14521;48.148;-1.656;2023-04-24T14:35:30;20.40;78.70
26964;DHT22;14521;48.148;-1.656;2023-04-24T14:38:57;20.50;78.50
26964;DHT22;14521;48.148;-1.656;2023-04-24T14:42:19;20.50;78.30
26964;DHT22;14521;48.148;-1.656;2023-04-24T14:45:41;20.50;78.30
26964;DHT22;14521;48.148;-1.656;2023-04-24T14:49:04;20.60;78.50
26964;DHT22;14521;48.148;-1.656;2023-04-24T14:52:27;20.60;78.40
26964;DHT22;14521;48.148;-1.656;2023-04-24T14:55:49;20.60;78.50
26964;DHT22;14521;48.148;-1.656;2023-04-24T14:59:11;20.60;78.50
26964;DHT22;14521;48.148;-1.656;2023-04-24T15:02:34;20.60;78.80
26964;DHT22;14521;48.148;-1.656;2023-04-24T15:05:59;20.60;80.40
26964;DHT22;14521;48.148;-1.656;2023-04-24T15:09:22;20.50;81.50
26964;DHT22;14521;48.148;-1.656;2023-04-24T15:12:44;20.40;81.20
26964;DHT22;14521;48.148;-1.656;2023-04-24T15:16:07;20.50;80.60
26964;DHT22;14521;48.148;-1.656;2023-04-24T15:19:29;20.50;80.10
26964;DHT22;14521;48.148;-1.656;2023-04-24T15:22:51;20.50;79.90
26964;DHT22;14521;48.148;-1.656;2023-04-24T15:26:14;20.60;80.00
26964;DHT22;14521;48.148;-1.656;2023-04-24T15:29:36;20.60;79.90
26964;DHT22;14521;48.148;-1.656;2023-04-24T15:33:00;20.70;79.80
26964;DHT22;14521;48.148;-1.656;2023-04-24T15:36:22;20.70;79.80
26964;DHT22;14521;48.148;-1.656;2023-04-24T15:39:45;20.70;79.60
26964;DHT22;14521;48.148;-1.656;2023-04-24T15:43:07;20.70;79.80
26964;DHT22;14521;48.148;-1.656;2023-04-24T15:46:30;20.70;80.10
26964;DHT22;14521;48.148;-1.656;2023-04-24T15:49:52;20.60;80.30
26964;DHT22;14521;48.148;-1.656;2023-04-24T15:53:15;20.60;80.20
26964;DHT22;14521;48.148;-1.656;2023-04-24T15:56:43;20.60;79.80
26964;DHT22;14521;48.148;-1.656;2023-04-24T16:00:07;20.60;80.10
26964;DHT22;14521;48.148;-1.656;2023-04-24T16:03:33;20.70;80.10
26964;DHT22;14521;48.148;-1.656;2023-04-24T16:06:56;20.60;79.80
26964;DHT22;14521;48.148;-1.656;2023-04-24T16:10:18;20.70;80.00
26964;DHT22;14521;48.148;-1.656;2023-04-24T16:13:41;20.70;80.00
26964;DHT22;14521;48.148;-1.656;2023-04-24T16:17:03;20.70;80.10
26964;DHT22;14521;48.148;-1.656;2023-04-24T16:20:26;20.70;80.00
26964;DHT22;14521;48.148;-1.656;2023-04-24T16:23:49;20.70;79.80
26964;DHT22;14521;48.148;-1.656;2023-04-24T16:27:11;20.70;79.80
26964;DHT22;14521;48.148;-1.656;2023-04-24T16:30:33;20.60;79.80
26964;DHT22;14521;48.148;-1.656;2023-04-24T16:33:57;20.60;80.10
26964;DHT22;14521;48.148;-1.656;2023-04-24T16:37:19;20.60;80.10
26964;DHT22;14521;48.148;-1.656;2023-04-24T16:40:43;20.50;80.80
26964;DHT22;14521;48.148;-1.656;2023-04-24T16:44:05;20.50;81.30
26964;DHT22;14521;48.148;-1.656;2023-04-24T16:47:28;20.50;81.60
26964;DHT22;14521;48.148;-1.656;2023-04-24T16:50:50;20.60;80.30
26964;DHT22;14521;48.148;-1.656;2023-04-24T16:54:12;20.60;80.80
26964;DHT22;14521;48.148;-1.656;2023-04-24T16:57:35;20.60;80.10
26964;DHT22;14521;48.148;-1.656;2023-04-24T17:00:57;20.70;79.60
26964;DHT22;14521;48.148;-1.656;2023-04-24T17:04:19;20.80;79.30
26964;DHT22;14521;48.148;-1.656;2023-04-24T17:07:42;20.70;79.90
26964;DHT22;14521;48.148;-1.656;2023-04-24T17:11:04;20.70;79.40
26964;DHT22;14521;48.148;-1.656;2023-04-24T17:14:26;20.70;80.30
26964;DHT22;14521;48.148;-1.656;2023-04-24T17:17:49;20.60;79.50
26964;DHT22;14521;48.148;-1.656;2023-04-24T17:21:11;20.60;80.30
26964;DHT22;14521;48.148;-1.656;2023-04-24T17:24:33;20.60;80.80
26964;DHT22;14521;48.148;-1.656;2023-04-24T17:27:56;20.60;80.20
26964;DHT22;14521;48.148;-1.656;2023-04-24T17:31:18;20.50;80.80
26964;DHT22;14521;48.148;-1.656;2023-04-24T17:34:41;20.50;81.10
26964;DHT22;14521;48.148;-1.656;2023-04-24T17:38:03;20.50;81.60
26964;DHT22;14521;48.148;-1.656;2023-04-24T17:41:25;20.50;81.90
26964;DHT22;14521;48.148;-1.656;2023-04-24T17:44:47;20.50;82.20
26964;DHT22;14521;48.148;-1.656;2023-04-24T17:48:11;20.50;82.40
26964;DHT22;14521;48.148;-1.656;2023-04-24T17:51:33;20.50;82.40
26964;DHT22;14521;48.148;-1.656;2023-04-24T17:54:55;20.50;82.00
26964;DHT22;14521;48.148;-1.656;2023-04-24T17:58:18;20.40;82.20
26964;DHT22;14521;48.148;-1.656;2023-04-24T18:01:40;20.50;82.50
26964;DHT22;14521;48.148;-1.656;2023-04-24T18:05:03;20.50;82.20
26964;DHT22;14521;48.148;-1.656;2023-04-24T18:08:25;20.50;83.00
26964;DHT22;14521;48.148;-1.656;2023-04-24T18:11:47;20.50;82.80
26964;DHT22;14521;48.148;-1.656;2023-04-24T18:15:11;20.50;83.40
26964;DHT22;14521;48.148;-1.656;2023-04-24T18:18:35;20.60;83.60
26964;DHT22;14521;48.148;-1.656;2023-04-24T18:21:58;20.60;84.60
26964;DHT22;14521;48.148;-1.656;2023-04-24T18:25:20;20.50;83.40
26964;DHT22;14521;48.148;-1.656;2023-04-24T18:28:48;20.60;84.10
26964;DHT22;14521;48.148;-1.656;2023-04-24T18:32:10;20.60;84.70
26964;DHT22;14521;48.148;-1.656;2023-04-24T18:35:33;20.50;83.70
26964;DHT22;14521;48.148;-1.656;2023-04-24T18:38:55;20.60;85.40
26964;DHT22;14521;48.148;-1.656;2023-04-24T18:42:17;20.60;85.00
26964;DHT22;14521;48.148;-1.656;2023-04-24T18:45:39;20.50;85.40
26964;DHT22;14521;48.148;-1.656;2023-04-24T18:49:02;20.60;85.50
26964;DHT22;14521;48.148;-1.656;2023-04-24T18:52:25;20.60;84.90
26964;DHT22;14521;48.148;-1.656;2023-04-24T18:55:48;20.60;84.40
26964;DHT22;14521;48.148;-1.656;2023-04-24T18:59:10;20.60;84.80
26964;DHT22;14521;48.148;-1.656;2023-04-24T19:02:33;20.60;85.50
26964;DHT22;14521;48.148;-1.656;2023-04-24T19:05:55;20.60;85.70
26964;DHT22;14521;48.148;-1.656;2023-04-24T19:09:18;20.60;85.90
26964;DHT22;14521;48.148;-1.656;2023-04-24T19:12:40;20.50;85.00
26964;DHT22;14521;48.148;-1.656;2023-04-24T19:16:02;20.50;85.40
26964;DHT22;14521;48.148;-1.656;2023-04-24T19:19:24;20.50;86.20
26964;DHT22;14521;48.148;-1.656;2023-04-24T19:22:49;20.50;86.70
26964;DHT22;14521;48.148;-1.656;2023-04-24T19:26:12;20.40;85.40
26964;DHT22;14521;48.148;-1.656;2023-04-24T19:29:35;20.40;85.10
26964;DHT22;14521;48.148;-1.656;2023-04-24T19:32:57;20.40;84.80
26964;DHT22;14521;48.148;-1.656;2023-04-24T19:36:20;20.40;84.80
26964;DHT22;14521;48.148;-1.656;2023-04-24T19:39:42;20.40;85.00
26964;DHT22;14521;48.148;-1.656;2023-04-24T19:43:04;20.40;85.10
26964;DHT22;14521;48.148;-1.656;2023-04-24T19:46:27;20.40;85.20
26964;DHT22;14521;48.148;-1.656;2023-04-24T19:49:49;20.40;84.80
26964;DHT22;14521;48.148;-1.656;2023-04-24T19:53:12;20.40;84.60
26964;DHT22;14521;48.148;-1.656;2023-04-24T19:56:35;20.40;85.30
26964;DHT22;14521;48.148;-1.656;2023-04-24T19:59:57;20.40;83.50
26964;DHT22;14521;48.148;-1.656;2023-04-24T20:03:20;20.30;85.10
26964;DHT22;14521;48.148;-1.656;2023-04-24T20:06:54;20.30;83.80
26964;DHT22;14521;48.148;-1.656;2023-04-24T20:10:17;20.40;83.30
26964;DHT22;14521;48.148;-1.656;2023-04-24T20:13:39;20.40;83.30
26964;DHT22;14521;48.148;-1.656;2023-04-24T20:17:02;20.40;82.50
26964;DHT22;14521;48.148;-1.656;2023-04-24T20:20:24;20.40;82.30
26964;DHT22;14521;48.148;-1.656;2023-04-24T20:23:47;20.40;82.10
26964;DHT22;14521;48.148;-1.656;2023-04-24T20:27:10;20.40;82.00
26964;DHT22;14521;48.148;-1.656;2023-04-24T20:30:34;20.40;82.20
26964;DHT22;14521;48.148;-1.656;2023-04-24T20:33:56;20.40;82.30
26964;DHT22;14521;48.148;-1.656;2023-04-24T20:37:19;20.40;82.30
26964;DHT22;14521;48.148;-1.656;2023-04-24T20:40:41;20.40;84.50
26964;DHT22;14521;48.148;-1.656;2023-04-24T20:44:18;20.30;81.60
26964;DHT22;14521;48.148;-1.656;2023-04-24T20:47:40;20.30;81.70
26964;DHT22;14521;48.148;-1.656;2023-04-24T20:51:03;20.30;82.80
26964;DHT22;14521;48.148;-1.656;2023-04-24T20:54:25;20.30;83.20
26964;DHT22;14521;48.148;-1.656;2023-04-24T20:57:47;20.30;83.00
26964;DHT22;14521;48.148;-1.656;2023-04-24T21:01:10;20.30;82.70
26964;DHT22;14521;48.148;-1.656;2023-04-24T21:04:32;20.30;83.30